Time;durP1;ratioP1;P1;durP2;ratioP2;P2;SDS_P1;SDS_P2;PMS_P1;PMS_P2;Temp;Humidity;BMP_temperature;BMP_pressure;BME280_temperature;BME280_humidity;BME280_pressure;Samples;Min_cycle;Max_cycle;Signal;HPM_P1;HPM_P2
2022/09/02 00:09:16;;;;;;;3.53;2.53;;;;;;;13.50;99.63;97632.44;18363049;32;20113;-62
2022/09/02 00:19:24;;;;;;;3.70;2.75;;;;;;;13.44;99.82;97620.78;18412912;32;20468;-62
2022/09/02 00:29:27;;;;;;;2.62;2.42;;;;;;;13.36;99.27;97614.13;18349304;32;20130;-63
2022/09/02 00:39:30;;;;;;;4.00;2.67;;;;;;;13.25;99.85;97614.47;18371466;32;20075;-62
2022/09/02 00:49:37;;;;;;;3.10;2.80;;;;;;;13.17;99.91;97608.59;18424657;32;20104;-62
2022/09/02 00:59:58;;;;;;;3.35;2.62;;;;;;;13.09;100.00;97595.66;18240956;32;20069;-62
2022/09/02 01:10:03;;;;;;;3.65;2.42;;;;;;;13.02;100.00;97600.63;18359794;32;20127;-62
2022/09/02 01:20:10;;;;;;;3.62;2.78;;;;;;;12.96;100.00;97601.75;18232159;32;20104;-62
2022/09/02 01:30:17;;;;;;;4.60;2.87;;;;;;;12.88;100.00;97593.16;18388044;32;20077;-62
2022/09/02 01:40:20;;;;;;;3.65;2.60;;;;;;;12.75;100.00;97593.81;18358181;32;20116;-62
2022/09/02 01:50:22;;;;;;;3.15;2.67;;;;;;;12.65;100.00;97581.16;18367776;32;20050;-62
2022/09/02 02:00:26;;;;;;;3.75;2.47;;;;;;;12.58;100.00;97586.13;18230655;32;20403;-62
2022/09/02 02:10:29;;;;;;;3.77;3.00;;;;;;;12.49;100.00;97579.69;18330851;32;20133;-62
2022/09/02 02:20:32;;;;;;;2.63;2.43;;;;;;;12.40;100.00;97576.75;18357342;32;20057;-61
2022/09/02 02:30:39;;;;;;;3.43;2.60;;;;;;;12.30;100.00;97584.97;18377370;32;20094;-62
2022/09/02 02:40:45;;;;;;;3.10;2.43;;;;;;;12.23;100.00;97579.88;18500053;32;20391;-62
2022/09/02 02:50:49;;;;;;;2.60;2.40;;;;;;;12.13;100.00;97575.34;18520562;32;20045;-62
2022/09/02 03:00:55;;;;;;;3.25;2.53;;;;;;;12.07;100.00;97576.47;18570469;32;20412;-62
2022/09/02 03:11:01;;;;;;;4.77;2.70;;;;;;;12.05;100.00;97578.66;18569981;32;20102;-62
2022/09/02 03:21:08;;;;;;;3.40;2.50;;;;;;;11.97;100.00;97573.84;18562643;32;20094;-62
2022/09/02 03:31:22;;;;;;;3.80;2.60;;;;;;;11.94;100.00;97574.38;18568396;32;20097;-62
2022/09/02 03:41:29;;;;;;;3.62;2.80;;;;;;;11.90;100.00;97565.19;18568158;32;20399;-62
2022/09/02 03:51:34;;;;;;;3.23;2.70;;;;;;;11.86;100.00;97560.31;18567770;31;20029;-62
2022/09/02 04:01:38;;;;;;;;;;;;;;;11.86;100.00;97562.22;18567138;32;20092;-63
2022/09/02 04:11:42;;;;;;;2.57;2.20;;;;;;;11.85;100.00;97553.31;18566368;32;20271;-62
2022/09/02 04:21:47;;;;;;;;;;;;;;;11.87;100.00;97556.53;18565773;32;20075;-62
2022/09/02 04:31:52;;;;;;;2.90;2.50;;;;;;;11.86;100.00;97549.47;18565068;32;20307;-61
2022/09/02 04:41:55;;;;;;;3.60;2.70;;;;;;;11.85;100.00;97547.06;18564231;32;20061;-62
2022/09/02 04:51:59;;;;;;;3.03;2.70;;;;;;;11.92;100.00;97544.88;18563101;32;20056;-62
2022/09/02 05:02:04;;;;;;;3.93;3.07;;;;;;;11.92;100.00;97539.44;18562802;32;20453;-62
2022/09/02 05:12:09;;;;;;;3.47;3.00;;;;;;;11.93;100.00;97535.62;18542084;32;20104;-62
2022/09/02 05:22:13;;;;;;;3.57;3.17;;;;;;;11.94;100.00;97536.44;18561833;32;20083;-62
2022/09/02 05:32:17;;;;;;;3.80;3.40;;;;;;;11.97;100.00;97544.03;18561466;32;20052;-62
2022/09/02 05:42:23;;;;;;;5.03;3.35;;;;;;;12.01;100.00;97548.59;18561452;32;20065;-62
2022/09/02 05:52:38;;;;;;;4.23;3.30;;;;;;;12.21;100.00;97552.25;18560310;32;20181;-62
2022/09/02 06:02:43;;;;;;;4.97;3.20;;;;;;;12.50;100.00;97557.69;18554171;32;20075;-63
2022/09/02 06:12:47;;;;;;;3.90;3.10;;;;;;;12.87;100.00;97563.59;18548970;32;20057;-64
2022/09/02 06:22:52;;;;;;;4.68;2.78;;;;;;;13.26;100.00;97561.78;18572805;32;20061;-64
2022/09/02 06:32:56;;;;;;;3.22;2.55;;;;;;;13.71;96.01;97546.03;18572150;32;20056;-65
2022/09/02 06:43:17;;;;;;;3.70;2.60;;;;;;;14.23;90.56;97552.28;18558775;32;20053;-62
2022/09/02 06:53:23;;;;;;;5.97;2.45;;;;;;;14.66;84.68;97537.75;18570548;32;20044;-62
2022/09/02 07:13:49;;;;;;;1.85;1.65;;;;;;;15.54;82.47;97547.72;18569884;32;20377;-62
2022/09/02 07:23:58;;;;;;;2.97;1.95;;;;;;;15.93;75.76;97540.88;18568711;32;20095;-63
2022/09/02 07:34:18;;;;;;;2.33;2.08;;;;;;;16.24;79.63;97551.06;18541834;32;20065;-63
2022/09/02 07:44:37;;;;;;;4.00;2.23;;;;;;;16.55;75.48;97538.59;18568116;32;20432;-63
2022/09/02 07:54:47;;;;;;;2.08;1.70;;;;;;;17.00;70.47;97551.38;18567007;32;20381;-62
2022/09/02 08:05:21;;;;;;;2.87;1.80;;;;;;;17.47;73.97;97546.19;18556490;32;20068;-63
2022/09/02 08:15:47;;;;;;;2.15;1.70;;;;;;;17.88;69.97;97549.66;18566043;32;20052;-63
2022/09/02 08:25:59;;;;;;;3.22;1.90;;;;;;;18.29;65.92;97541.00;18566125;32;20053;-63
2022/09/02 08:36:25;;;;;;;4.35;1.95;;;;;;;18.65;69.56;97546.37;18547792;32;20060;-62
2022/09/02 08:46:34;;;;;;;2.67;2.15;;;;;;;19.04;67.37;97539.03;18557665;32;20373;-63
2022/09/02 08:56:40;;;;;;;2.70;1.77;;;;;;;19.35;65.06;97532.44;18563156;32;20045;-63
2022/09/02 09:07:39;;;;;;;5.70;2.20;;;;;;;19.73;64.81;97532.34;18562965;32;20049;-63
2022/09/02 09:18:04;;;;;;;;;;;;;;;19.95;66.20;97524.97;18562713;32;20056;-63
2022/09/02 09:28:09;;;;;;;2.50;2.10;;;;;;;20.43;65.25;97511.75;18562107;32;19948;-63
2022/09/02 09:38:33;;;;;;;3.60;2.25;;;;;;;20.76;63.38;97505.47;18547613;32;20413;-63
2022/09/02 09:48:50;;;;;;;5.43;2.47;;;;;;;21.15;63.41;97500.47;18545766;32;20083;-63
2022/09/02 09:58:54;;;;;;;2.53;2.15;;;;;;;21.38;62.26;97506.28;18546806;32;20061;-62
2022/09/02 10:09:03;;;;;;;3.10;2.60;;;;;;;21.72;62.08;97501.44;18560268;32;20057;-64
2022/09/02 10:19:42;;;;;;;3.53;2.22;;;;;;;22.10;63.41;97493.84;18547309;32;20064;-62
2022/09/02 10:29:54;;;;;;;2.97;2.37;;;;;;;22.33;61.20;97496.84;18559870;32;20045;-63
2022/09/02 10:40:03;;;;;;;4.45;2.78;;;;;;;22.66;59.51;97482.78;18552814;32;20061;-62
2022/09/02 10:50:34;;;;;;;2.10;1.90;;;;;;;22.90;60.73;97475.53;18559187;32;20105;-63
2022/09/02 11:00:41;;;;;;;2.35;2.15;;;;;;;23.39;59.99;97476.28;18550280;32;20124;-62
2022/09/02 11:11:26;;;;;;;4.37;2.53;;;;;;;23.71;59.75;97484.47;18556893;32;20075;-63
2022/09/02 11:22:02;;;;;;;2.83;2.53;;;;;;;24.14;56.13;97479.84;18569285;32;20053;-62
2022/09/02 11:32:30;;;;;;;4.05;2.45;;;;;;;24.41;52.33;97466.16;18569011;32;20101;-62
2022/09/02 11:42:52;;;;;;;3.15;2.40;;;;;;;24.33;50.63;97452.19;18567932;32;20338;-62
2022/09/02 11:53:13;;;;;;;3.72;2.60;;;;;;;24.62;55.85;97427.84;18567119;32;20379;-62
2022/09/02 12:03:23;;;;;;;3.25;2.62;;;;;;;25.40;56.40;97423.94;18567042;32;20056;-62
2022/09/02 12:13:52;;;;;;;5.18;2.72;;;;;;;25.79;51.79;97422.84;18566803;32;20057;-63
2022/09/02 12:24:05;;;;;;;2.97;2.35;;;;;;;26.14;53.54;97414.16;18566206;32;20372;-63
2022/09/02 12:34:19;;;;;;;3.47;2.50;;;;;;;26.21;52.19;97396.81;18564675;32;20057;-62
2022/09/02 12:44:50;;;;;;;3.22;2.45;;;;;;;26.06;58.48;97398.66;18564805;32;20111;-62
2022/09/02 12:54:54;;;;;;;3.10;2.78;;;;;;;26.55;48.07;97394.75;18563477;32;20055;-62
2022/09/02 13:05:16;;;;;;;3.45;2.65;;;;;;;26.57;50.25;97358.31;18563318;32;20075;-62
2022/09/02 13:15:36;;;;;;;2.57;2.37;;;;;;;26.01;45.01;97366.53;18535283;32;20070;-62
2022/09/02 13:25:54;;;;;;;3.42;2.28;;;;;;;26.25;46.54;97353.31;18555173;32;20557;-62
2022/09/02 13:35:58;;;;;;;4.68;2.80;;;;;;;25.94;50.78;97335.16;18561619;32;20085;-62
2022/09/02 13:46:01;;;;;;;2.92;2.72;;;;;;;26.27;53.82;97350.97;18546631;32;20433;-62
2022/09/02 13:56:10;;;;;;;3.12;2.72;;;;;;;26.71;50.94;97344.59;18560826;32;20065;-62
2022/09/02 14:06:16;;;;;;;3.60;2.70;;;;;;;27.00;56.98;97319.81;18560400;32;20063;-62
2022/09/02 14:16:32;;;;;;;3.10;2.80;;;;;;;26.17;59.74;97333.03;18554103;32;20104;-62
2022/09/02 14:26:42;;;;;;;3.33;2.75;;;;;;;25.40;62.93;97363.03;18540687;32;20091;-62
2022/09/02 14:36:45;;;;;;;3.42;2.83;;;;;;;24.63;67.44;97352.06;18539624;32;20061;-63
2022/09/02 14:47:00;;;;;;;3.15;2.40;;;;;;;23.82;70.65;97341.94;18571556;32;20100;-62
2022/09/02 14:57:04;;;;;;;5.03;2.80;;;;;;;23.08;71.79;97345.53;18570664;32;20100;-62
2022/09/02 15:07:07;;;;;;;10.45;2.20;;;;;;;22.28;75.48;97442.84;18556117;32;20045;-62
2022/09/02 15:17:14;;;;;;;14.30;2.80;;;;;;;19.56;75.56;97516.81;18569307;32;20109;-59
2022/09/02 15:38:41;;;;;;;3.10;0.85;;;;;;;15.18;100.00;97493.19;18550228;32;20136;-60
2022/09/02 15:48:54;;;;;;;2.90;0.95;;;;;;;15.35;100.00;97496.09;18552938;31;20045;-60
2022/09/02 15:59:11;;;;;;;3.58;0.82;;;;;;;15.42;100.00;97476.59;18567135;32;20053;-60
2022/09/02 16:09:21;;;;;;;1.80;1.00;;;;;;;15.48;100.00;97459.00;18560099;32;20433;-60
2022/09/02 16:19:28;;;;;;;4.90;1.50;;;;;;;15.58;100.00;97464.25;18565962;32;20072;-60
2022/09/02 16:29:40;;;;;;;6.20;1.30;;;;;;;15.63;100.00;97462.53;18565389;32;20057;-60
2022/09/02 16:40:02;;;;;;;2.53;1.00;;;;;;;15.81;100.00;97456.09;18564391;32;20186;-60
2022/09/02 16:50:08;;;;;;;1.95;0.82;;;;;;;15.90;100.00;97426.97;18537437;32;20041;-60
2022/09/02 17:00:11;;;;;;;2.47;1.15;;;;;;;15.95;100.00;97438.88;18548735;32;20076;-60
2022/09/02 17:10:14;;;;;;;1.33;0.93;;;;;;;15.99;100.00;97413.44;18562600;32;20094;-60
2022/09/02 17:20:18;;;;;;;3.90;1.20;;;;;;;16.02;100.00;97390.16;18562398;32;20060;-60
2022/09/02 17:30:22;;;;;;;1.47;1.03;;;;;;;16.13;100.00;97398.88;18547602;32;20048;-60
2022/09/02 17:50:47;;;;;;;2.37;0.90;;;;;;;16.35;100.00;97381.66;18560651;32;20040;-60
2022/09/02 18:00:55;;;;;;;3.20;1.10;;;;;;;16.37;100.00;97385.66;18546030;32;20534;-60
2022/09/02 18:11:03;;;;;;;1.77;1.00;;;;;;;16.27;100.00;97385.97;18553383;32;20071;-62
2022/09/02 18:21:18;;;;;;;1.95;1.20;;;;;;;16.07;100.00;97369.03;18559182;32;20080;-60
2022/09/02 18:31:45;;;;;;;1.58;1.12;;;;;;;15.89;100.00;97362.66;18558730;32;20060;-60
2022/09/02 18:42:16;;;;;;;1.70;1.10;;;;;;;15.75;100.00;97365.44;18572146;32;20123;-60
2022/09/02 18:52:25;;;;;;;1.87;1.15;;;;;;;15.64;100.00;97349.66;18564507;32;20060;-60
2022/09/02 19:02:40;;;;;;;1.62;1.10;;;;;;;15.36;100.00;97352.50;18570893;32;20429;-60
2022/09/02 19:12:43;;;;;;;1.42;1.10;;;;;;;15.23;100.00;97349.53;18570613;32;20063;-60
2022/09/02 19:22:52;;;;;;;2.93;1.27;;;;;;;15.06;100.00;97338.47;18555232;32;20060;-60
2022/09/02 19:32:59;;;;;;;1.30;1.00;;;;;;;15.00;100.00;97342.44;18555082;32;20364;-60
2022/09/02 19:43:06;;;;;;;1.98;1.00;;;;;;;14.91;100.00;97354.06;18554465;32;20391;-60
2022/09/02 19:53:16;;;;;;;1.58;1.20;;;;;;;14.80;100.00;97358.13;18567354;32;20081;-60
2022/09/02 20:03:19;;;;;;;1.73;1.30;;;;;;;14.67;100.00;97364.37;18540049;32;20358;-60
2022/09/02 20:13:24;;;;;;;1.87;1.23;;;;;;;14.56;100.00;97364.56;18566570;32;20108;-60
2022/09/02 20:23:31;;;;;;;1.60;1.00;;;;;;;14.46;100.00;97364.78;18565788;32;20080;-60
2022/09/02 20:34:04;;;;;;;2.97;1.10;;;;;;;14.39;100.00;97372.53;18550600;32;20061;-60
2022/09/02 20:44:49;;;;;;;2.42;1.83;;;;;;;14.48;100.00;97359.81;18550022;32;20079;-60
2022/09/02 20:55:03;;;;;;;2.37;1.90;;;;;;;14.44;100.00;97361.53;18360794;32;20064;-60
2022/09/02 21:05:17;;;;;;;1.90;1.40;;;;;;;14.41;100.00;97364.87;18360943;32;20519;-61
2022/09/02 21:15:46;;;;;;;1.85;1.55;;;;;;;14.40;100.00;97360.53;18360424;32;20129;-60
2022/09/02 21:26:03;;;;;;;3.47;1.45;;;;;;;14.34;100.00;97361.75;18398808;32;20076;-60
2022/09/02 21:36:13;;;;;;;3.40;1.77;;;;;;;14.31;100.00;97351.50;18422627;32;20389;-60
2022/09/02 21:46:27;;;;;;;3.33;1.58;;;;;;;14.29;100.00;97346.34;18422347;32;20093;-60
2022/09/02 21:57:10;;;;;;;2.97;1.93;;;;;;;14.21;100.00;97357.91;18534519;32;20071;-60
2022/09/02 22:07:21;;;;;;;3.35;2.15;;;;;;;14.22;100.00;97354.91;18546530;32;20432;-60
2022/09/02 22:17:44;;;;;;;3.40;2.25;;;;;;;14.23;100.00;97351.06;18357248;32;20089;-60
2022/09/02 22:28:19;;;;;;;2.53;2.30;;;;;;;14.26;100.00;97365.97;18356966;32;20061;-60
2022/09/02 22:38:39;;;;;;;5.12;2.72;;;;;;;14.30;100.00;97385.22;18356800;32;20149;-60
2022/09/02 22:59:34;;;;;;;5.05;3.70;;;;;;;14.42;100.00;97410.00;18567208;32;20049;-60
2022/09/02 23:09:37;;;;;;;3.47;3.10;;;;;;;14.49;100.00;97404.97;18570551;32;20120;-60
2022/09/02 23:19:44;;;;;;;3.50;2.37;;;;;;;14.53;100.00;97403.25;18569887;32;20104;-60
2022/09/02 23:29:53;;;;;;;3.40;2.15;;;;;;;14.67;100.00;97392.41;18569075;32;20076;-60
2022/09/02 23:40:12;;;;;;;3.08;2.12;;;;;;;14.79;100.00;97405.50;18569129;32;20104;-60
2022/09/02 23:50:24;;;;;;;4.60;2.55;;;;;;;14.87;100.00;97374.84;18567896;32;20074;-60
